Time;durP1;ratioP1;P1;durP2;ratioP2;P2;SDS_P1;SDS_P2;PMS_P1;PMS_P2;Temp;Humidity;BMP_temperature;BMP_pressure;BME280_temperature;BME280_humidity;BME280_pressure;Samples;Min_cycle;Max_cycle;Signal;HPM_P1;HPM_P2
2022/01/25 00:24:17;;;;;;;18.40;12.50;;;;;;;;;;4991415;28;20455;-65
2022/01/25 00:24:24;;;;;;;15.43;10.40;;;;;;;;;;4987970;28;20481;-65
2022/01/25 00:27:05;;;;;;;15.63;10.90;;;;;;;;;;4987857;28;20441;-64
2022/01/25 00:32:06;;;;;;;13.03;10.50;;;;;;;;;;4985809;28;20495;-66
2022/01/25 00:34:32;;;;;;;13.57;10.90;;;;;;;;;;4990726;28;20449;-65
2022/01/25 00:36:58;;;;;;;17.00;11.33;;;;;;;;;;4986105;28;20981;-65
2022/01/25 00:39:24;;;;;;;14.17;11.40;;;;;;;;;;4988746;28;20863;-64
2022/01/25 00:41:50;;;;;;;19.73;11.50;;;;;;;;;;4988766;28;20453;-65
2022/01/25 00:44:16;;;;;;;17.93;12.10;;;;;;;;;;4985684;28;20438;-65
2022/01/25 00:46:42;;;;;;;18.40;12.63;;;;;;;;;;4986647;28;20524;-65
2022/01/25 00:49:09;;;;;;;14.37;11.10;;;;;;;;;;4988540;28;20444;-65
2022/01/25 00:51:57;;;;;;;17.70;11.67;;;;;;;;;;4987014;28;20500;-65
2022/01/25 00:54:30;;;;;;;16.37;11.57;;;;;;;;;;4988390;28;20484;-65
2022/01/25 00:56:56;;;;;;;10.23;9.13;;;;;;;;;;4986387;28;20571;-64
2022/01/25 00:59:26;;;;;;;10.23;8.80;;;;;;;;;;4984417;28;20444;-65
2022/01/25 01:01:54;;;;;;;10.60;9.23;;;;;;;;;;4989636;28;20441;-65
2022/01/25 01:04:21;;;;;;;9.80;8.50;;;;;;;;;;4986468;28;20998;-65
2022/01/25 01:06:47;;;;;;;11.67;9.10;;;;;;;;;;4986577;28;20446;-65
2022/01/25 01:09:14;;;;;;;12.10;9.27;;;;;;;;;;4981579;28;20785;-65
2022/01/25 01:11:47;;;;;;;15.83;10.63;;;;;;;;;;4989460;28;20492;-65
2022/01/25 01:14:24;;;;;;;13.27;10.23;;;;;;;;;;4989661;28;20492;-65
2022/01/25 01:17:12;;;;;;;17.43;12.63;;;;;;;;;;4986441;28;20444;-65
2022/01/25 01:31:02;;;;;;;15.10;10.70;;;;;;;;;;4983021;28;20487;-65
2022/01/25 01:43:52;;;;;;;15.73;10.70;;;;;;;;;;4986119;28;20675;-66
2022/01/25 01:48:59;;;;;;;18.37;12.90;;;;;;;;;;4983454;28;20473;-65
2022/01/25 01:51:32;;;;;;;18.30;12.03;;;;;;;;;;4979600;28;20484;-65
2022/01/25 01:54:04;;;;;;;16.70;11.23;;;;;;;;;;4988725;28;20433;-64
2022/01/25 01:56:30;;;;;;;18.63;13.07;;;;;;;;;;4987331;28;20455;-65
2022/01/25 01:58:58;;;;;;;17.87;11.57;;;;;;;;;;4983955;28;20456;-65
2022/01/25 02:01:25;;;;;;;23.30;11.83;;;;;;;;;;4981464;28;20496;-65
2022/01/25 02:03:51;;;;;;;17.40;11.10;;;;;;;;;;4988465;28;20441;-65
2022/01/25 02:06:18;;;;;;;17.60;12.63;;;;;;;;;;4987984;28;20452;-65
2022/01/25 02:08:44;;;;;;;19.20;11.40;;;;;;;;;;4985356;28;20469;-64
2022/01/25 02:11:10;;;;;;;18.83;11.67;;;;;;;;;;4987511;28;20846;-65
2022/01/25 02:13:41;;;;;;;21.40;11.67;;;;;;;;;;4989339;28;21014;-64
2022/01/25 02:16:10;;;;;;;15.73;11.87;;;;;;;;;;4986930;28;20820;-65
2022/01/25 02:24:05;;;;;;;15.37;12.10;;;;;;;;;;4983119;28;20437;-64
2022/01/25 02:26:31;;;;;;;18.17;12.97;;;;;;;;;;4981163;28;20508;-64
2022/01/25 02:28:57;;;;;;;11.97;10.03;;;;;;;;;;4984035;28;20453;-67
2022/01/25 02:31:23;;;;;;;11.97;9.93;;;;;;;;;;4985279;28;20490;-65
2022/01/25 02:33:49;;;;;;;14.27;10.80;;;;;;;;;;4986096;28;20441;-65
2022/01/25 02:36:22;;;;;;;15.40;9.67;;;;;;;;;;4979565;28;20485;-64
2022/01/25 02:38:48;;;;;;;13.10;10.60;;;;;;;;;;4985970;28;20907;-65
2022/01/25 02:41:14;;;;;;;10.50;9.07;;;;;;;;;;4985197;28;20831;-65
2022/01/25 02:43:43;;;;;;;12.30;8.73;;;;;;;;;;4986425;28;20571;-65
2022/01/25 02:49:08;;;;;;;11.33;8.80;;;;;;;;;;4985498;28;20442;-64
2022/01/25 02:51:35;;;;;;;12.93;8.27;;;;;;;;;;4964763;28;20844;-64
2022/01/25 02:54:01;;;;;;;10.37;8.60;;;;;;;;;;4986076;28;20983;-65
2022/01/25 02:56:28;;;;;;;12.37;9.80;;;;;;;;;;4984317;28;20445;-65
2022/01/25 02:58:55;;;;;;;8.90;8.00;;;;;;;;;;4982263;28;20472;-65
2022/01/25 03:01:22;;;;;;;16.73;9.70;;;;;;;;;;4985899;28;20437;-65
2022/01/25 03:03:48;;;;;;;10.80;7.93;;;;;;;;;;4986282;28;20486;-64
2022/01/25 03:06:15;;;;;;;9.37;7.90;;;;;;;;;;4986922;28;20440;-64
2022/01/25 03:08:41;;;;;;;13.73;8.50;;;;;;;;;;4986290;28;20480;-64
2022/01/25 03:11:07;;;;;;;13.10;8.87;;;;;;;;;;4978764;28;21014;-65
2022/01/25 03:13:46;;;;;;;11.73;7.90;;;;;;;;;;4984034;28;20453;-64
2022/01/25 03:16:37;;;;;;;18.00;9.90;;;;;;;;;;4982796;28;20441;-64
2022/01/25 03:19:28;;;;;;;25.77;13.87;;;;;;;;;;4983601;28;20445;-64
2022/01/25 03:21:51;;;;;;;44.33;18.03;;;;;;;;;;4986430;28;20440;-65
2022/01/25 03:24:17;;;;;;;29.93;16.33;;;;;;;;;;4986044;28;20430;-65
2022/01/25 03:26:43;;;;;;;22.60;13.60;;;;;;;;;;4989499;28;20801;-65
2022/01/25 03:29:09;;;;;;;18.43;11.70;;;;;;;;;;4987422;28;20429;-65
2022/01/25 03:31:35;;;;;;;21.67;11.37;;;;;;;;;;4986430;28;20488;-65
2022/01/25 03:34:01;;;;;;;13.73;10.00;;;;;;;;;;4985730;28;20922;-64
2022/01/25 03:36:27;;;;;;;18.20;11.30;;;;;;;;;;4984839;28;20753;-65
2022/01/25 03:38:53;;;;;;;20.10;11.80;;;;;;;;;;4980003;28;20440;-64
2022/01/25 03:41:19;;;;;;;19.53;11.67;;;;;;;;;;4985240;28;20519;-65
2022/01/25 03:43:52;;;;;;;21.67;10.73;;;;;;;;;;4984976;28;20445;-64
2022/01/25 03:47:05;;;;;;;18.30;10.40;;;;;;;;;;4986080;28;20524;-64
2022/01/25 03:51:53;;;;;;;13.30;9.97;;;;;;;;;;4983343;28;20639;-64
2022/01/25 03:54:19;;;;;;;17.57;11.30;;;;;;;;;;4990454;28;20466;-64
2022/01/25 03:56:45;;;;;;;14.90;10.40;;;;;;;;;;4992756;28;20440;-64
2022/01/25 03:59:11;;;;;;;18.17;10.53;;;;;;;;;;4989342;28;20424;-64
2022/01/25 04:01:37;;;;;;;18.67;10.97;;;;;;;;;;4990916;28;20444;-64
2022/01/25 04:04:11;;;;;;;17.57;11.57;;;;;;;;;;4991526;28;20476;-65
2022/01/25 04:06:38;;;;;;;14.57;10.57;;;;;;;;;;4982838;28;20452;-65
2022/01/25 04:09:05;;;;;;;25.23;11.53;;;;;;;;;;4991144;28;20477;-65
2022/01/25 04:11:31;;;;;;;20.90;13.37;;;;;;;;;;4988059;28;20489;-64
2022/01/25 04:13:58;;;;;;;16.60;11.57;;;;;;;;;;4983471;28;20503;-64
2022/01/25 04:16:34;;;;;;;21.00;13.00;;;;;;;;;;4991009;28;20451;-64
2022/01/25 04:19:17;;;;;;;16.57;11.80;;;;;;;;;;4990223;28;20832;-65
2022/01/25 04:24:41;;;;;;;15.90;11.83;;;;;;;;;;4990794;28;20622;-65
2022/01/25 04:25:02;;;;;;;17.33;11.80;;;;;;;;;;4983028;28;20446;-65
2022/01/25 04:27:28;;;;;;;16.50;11.73;;;;;;;;;;4986803;28;20583;-64
2022/01/25 04:29:54;;;;;;;21.20;12.57;;;;;;;;;;4989852;28;20465;-65
2022/01/25 04:32:23;;;;;;;17.07;11.40;;;;;;;;;;4984870;28;20969;-65
2022/01/25 04:48:57;;;;;;;17.17;11.53;;;;;;;;;;4991159;28;20456;-65
2022/01/25 04:54:12;;;;;;;18.50;10.87;;;;;;;;;;4982369;28;22473;-65
2022/01/25 04:56:48;;;;;;;15.73;11.40;;;;;;;;;;4989344;28;20441;-65
2022/01/25 04:59:23;;;;;;;13.63;9.87;;;;;;;;;;4987727;28;20854;-65
2022/01/25 05:01:52;;;;;;;15.93;9.07;;;;;;;;;;4983288;28;20437;-65
2022/01/25 05:04:25;;;;;;;15.30;10.40;;;;;;;;;;4987004;28;20904;-65
2022/01/25 05:06:55;;;;;;;9.93;8.97;;;;;;;;;;4989276;28;20531;-65
2022/01/25 05:09:21;;;;;;;11.83;9.53;;;;;;;;;;4988180;28;20500;-65
2022/01/25 05:11:49;;;;;;;13.30;8.50;;;;;;;;;;4981478;28;20558;-65
2022/01/25 05:16:57;;;;;;;15.40;10.70;;;;;;;;;;4987404;28;20452;-65
2022/01/25 05:24:31;;;;;;;16.60;10.47;;;;;;;;;;4990117;28;20452;-65
2022/01/25 05:26:57;;;;;;;19.47;12.20;;;;;;;;;;4985866;28;20649;-64
2022/01/25 05:29:23;;;;;;;11.03;9.43;;;;;;;;;;4988645;28;20521;-64
2022/01/25 05:31:49;;;;;;;18.20;11.60;;;;;;;;;;4988912;28;21012;-65
2022/01/25 05:34:15;;;;;;;36.43;16.10;;;;;;;;;;4987002;28;20926;-64
2022/01/25 05:36:43;;;;;;;54.50;25.43;;;;;;;;;;4990824;28;20441;-64
2022/01/25 05:39:16;;;;;;;42.80;21.30;;;;;;;;;;4981602;28;20449;-64
2022/01/25 05:41:42;;;;;;;19.07;12.13;;;;;;;;;;4989657;28;20492;-65
2022/01/25 05:47:14;;;;;;;22.20;13.30;;;;;;;;;;4945490;29;20450;-65
2022/01/25 05:49:43;;;;;;;34.33;14.03;;;;;;;;;;4948532;29;20915;-64
2022/01/25 05:52:10;;;;;;;30.30;15.00;;;;;;;;;;4968525;28;20576;-65
2022/01/25 05:54:36;;;;;;;19.40;12.77;;;;;;;;;;4983059;28;20475;-65
2022/01/25 05:57:02;;;;;;;23.07;12.70;;;;;;;;;;4980823;28;20450;-65
2022/01/25 05:59:28;;;;;;;14.53;10.37;;;;;;;;;;4988768;28;20444;-65
2022/01/25 06:01:55;;;;;;;17.23;10.97;;;;;;;;;;4988824;28;20437;-65
2022/01/25 06:04:22;;;;;;;18.27;9.73;;;;;;;;;;4987099;28;20858;-65
2022/01/25 06:06:48;;;;;;;30.40;15.67;;;;;;;;;;4990263;28;20960;-65
2022/01/25 06:09:14;;;;;;;18.10;10.50;;;;;;;;;;4978232;28;20477;-65
2022/01/25 06:11:40;;;;;;;10.77;8.70;;;;;;;;;;4984941;28;20902;-65
2022/01/25 06:14:06;;;;;;;10.07;7.33;;;;;;;;;;4988989;28;20452;-65
2022/01/25 06:16:33;;;;;;;15.00;10.30;;;;;;;;;;4988756;28;20440;-68
2022/01/25 06:18:59;;;;;;;13.60;9.37;;;;;;;;;;4981588;28;20445;-65
2022/01/25 06:21:25;;;;;;;11.50;7.97;;;;;;;;;;4986405;28;20440;-65
2022/01/25 06:23:51;;;;;;;10.10;7.93;;;;;;;;;;4989013;28;20429;-65
2022/01/25 06:26:17;;;;;;;16.60;8.87;;;;;;;;;;4987211;28;20468;-65
2022/01/25 06:28:43;;;;;;;12.40;9.07;;;;;;;;;;4983090;28;20440;-65
2022/01/25 06:31:09;;;;;;;19.60;9.53;;;;;;;;;;4981761;28;20500;-65
2022/01/25 06:33:38;;;;;;;10.67;9.13;;;;;;;;;;4986930;28;20457;-72
2022/01/25 06:36:04;;;;;;;10.13;9.07;;;;;;;;;;4987906;28;20864;-66
2022/01/25 06:38:30;;;;;;;11.50;9.60;;;;;;;;;;4986014;28;20765;-67
2022/01/25 06:40:56;;;;;;;12.40;9.43;;;;;;;;;;4984264;28;20437;-66
2022/01/25 06:43:22;;;;;;;15.20;10.47;;;;;;;;;;4987388;28;20519;-66
2022/01/25 06:45:55;;;;;;;13.50;9.80;;;;;;;;;;4989300;28;20562;-66
2022/01/25 06:48:22;;;;;;;15.60;11.07;;;;;;;;;;4988048;28;20437;-65
2022/01/25 06:50:47;;;;;;;14.57;10.53;;;;;;;;;;4986274;28;20495;-67
2022/01/25 06:53:14;;;;;;;14.50;11.57;;;;;;;;;;4970900;28;20442;-67
2022/01/25 06:55:40;;;;;;;19.70;13.60;;;;;;;;;;4985289;28;20528;-67
2022/01/25 06:58:06;;;;;;;18.90;14.40;;;;;;;;;;4988778;28;20952;-66
2022/01/25 07:00:32;;;;;;;18.40;12.63;;;;;;;;;;4982470;28;20434;-66
2022/01/25 07:02:58;;;;;;;17.17;12.73;;;;;;;;;;4980225;28;20977;-66
2022/01/25 07:05:24;;;;;;;20.50;13.37;;;;;;;;;;4986044;28;20437;-65
2022/01/25 07:07:52;;;;;;;20.10;13.90;;;;;;;;;;4985033;28;20929;-66
2022/01/25 07:10:17;;;;;;;16.37;12.80;;;;;;;;;;4982427;28;20475;-68
2022/01/25 07:12:44;;;;;;;17.23;12.20;;;;;;;;;;4986687;28;20448;-68
2022/01/25 07:15:10;;;;;;;18.67;13.57;;;;;;;;;;4987348;28;20815;-66
2022/01/25 07:17:36;;;;;;;17.57;13.53;;;;;;;;;;4986766;28;20500;-65
2022/01/25 07:20:06;;;;;;;21.20;13.20;;;;;;;;;;4986155;28;20562;-66
2022/01/25 07:22:32;;;;;;;19.27;12.60;;;;;;;;;;4991396;28;20444;-71
2022/01/25 07:24:58;;;;;;;18.23;12.77;;;;;;;;;;4990776;28;20448;-68
2022/01/25 07:27:24;;;;;;;18.97;12.83;;;;;;;;;;4988556;28;20445;-67
2022/01/25 07:29:50;;;;;;;17.47;13.73;;;;;;;;;;4993105;28;20440;-70
2022/01/25 07:32:16;;;;;;;23.40;13.90;;;;;;;;;;4985660;28;20546;-68
2022/01/25 07:34:42;;;;;;;28.57;14.80;;;;;;;;;;4987181;28;20591;-67
2022/01/25 07:37:08;;;;;;;18.83;12.50;;;;;;;;;;4988257;28;20927;-68
2022/01/25 07:39:34;;;;;;;19.77;13.23;;;;;;;;;;4991359;28;20933;-74
2022/01/25 07:42:00;;;;;;;20.20;13.53;;;;;;;;;;4988886;28;20463;-66
2022/01/25 07:44:31;;;;;;;20.80;13.70;;;;;;;;;;4986745;28;20439;-69
2022/01/25 07:46:57;;;;;;;15.67;11.37;;;;;;;;;;4989090;28;20457;-67
2022/01/25 07:49:25;;;;;;;19.10;13.00;;;;;;;;;;4986341;28;20493;-65
2022/01/25 07:51:51;;;;;;;20.10;12.13;;;;;;;;;;4975237;28;20493;-71
2022/01/25 07:54:17;;;;;;;19.90;13.57;;;;;;;;;;4978905;28;20932;-66
2022/01/25 07:56:43;;;;;;;17.47;12.27;;;;;;;;;;4986208;28;21012;-66
2022/01/25 07:59:09;;;;;;;21.07;14.97;;;;;;;;;;4984459;28;20456;-66
2022/01/25 08:01:35;;;;;;;19.00;12.60;;;;;;;;;;4981001;28;20596;-67
2022/01/25 08:04:01;;;;;;;23.77;14.90;;;;;;;;;;4983181;28;20448;-65
2022/01/25 08:06:27;;;;;;;33.03;19.23;;;;;;;;;;4987403;28;20448;-66
2022/01/25 08:08:53;;;;;;;29.30;17.50;;;;;;;;;;4992219;28;21114;-65
2022/01/25 08:11:20;;;;;;;18.10;13.70;;;;;;;;;;5007707;28;20491;-65
2022/01/25 08:13:50;;;;;;;23.13;12.13;;;;;;;;;;5006577;28;20434;-65
2022/01/25 08:16:17;;;;;;;17.20;12.30;;;;;;;;;;5002128;28;20952;-65
2022/01/25 08:18:43;;;;;;;15.87;12.47;;;;;;;;;;5002715;28;20471;-68
2022/01/25 08:21:09;;;;;;;17.60;12.40;;;;;;;;;;5008417;28;20444;-66
2022/01/25 08:23:35;;;;;;;17.60;12.53;;;;;;;;;;5007472;28;20432;-69
2022/01/25 08:26:02;;;;;;;21.30;15.40;;;;;;;;;;5008700;28;20428;-66
2022/01/25 08:28:27;;;;;;;23.10;14.67;;;;;;;;;;5005841;28;20531;-66
2022/01/25 08:30:53;;;;;;;27.63;16.10;;;;;;;;;;5010579;28;20559;-66
2022/01/25 08:33:19;;;;;;;24.83;15.83;;;;;;;;;;5005059;28;20444;-66
2022/01/25 08:35:45;;;;;;;34.43;15.77;;;;;;;;;;5010414;28;20531;-68
2022/01/25 08:38:11;;;;;;;23.27;15.40;;;;;;;;;;5007376;28;20539;-68
2022/01/25 08:40:37;;;;;;;22.90;16.83;;;;;;;;;;5009047;28;20463;-70
2022/01/25 08:43:04;;;;;;;22.33;17.10;;;;;;;;;;5005543;28;20437;-68
2022/01/25 08:45:30;;;;;;;28.03;16.97;;;;;;;;;;5008835;28;20412;-66
2022/01/25 08:47:56;;;;;;;25.13;16.27;;;;;;;;;;5006669;28;20531;-66
2022/01/25 08:50:22;;;;;;;30.90;17.20;;;;;;;;;;5002503;28;20519;-66
2022/01/25 08:52:48;;;;;;;31.83;16.60;;;;;;;;;;5005179;28;20478;-66
2022/01/25 08:55:14;;;;;;;24.87;16.40;;;;;;;;;;5008138;28;20529;-66
2022/01/25 08:57:40;;;;;;;25.73;15.70;;;;;;;;;;5000559;28;20454;-72
2022/01/25 09:00:07;;;;;;;36.33;18.67;;;;;;;;;;5008866;28;20412;-69
2022/01/25 09:02:33;;;;;;;31.03;18.50;;;;;;;;;;5005659;28;20443;-68
2022/01/25 09:04:59;;;;;;;29.60;19.17;;;;;;;;;;5007188;28;21180;-66
2022/01/25 09:07:25;;;;;;;32.10;19.93;;;;;;;;;;5002577;28;20472;-65
2022/01/25 09:09:51;;;;;;;28.10;18.97;;;;;;;;;;4992723;28;20495;-67
2022/01/25 09:12:17;;;;;;;31.90;19.17;;;;;;;;;;4987537;28;20535;-65
2022/01/25 09:14:45;;;;;;;34.00;19.70;;;;;;;;;;4987495;28;20965;-65
2022/01/25 09:17:11;;;;;;;36.60;21.10;;;;;;;;;;4978687;28;21149;-66
2022/01/25 09:19:41;;;;;;;30.83;18.17;;;;;;;;;;4987720;28;20567;-68
2022/01/25 09:22:07;;;;;;;34.90;20.70;;;;;;;;;;4982682;28;20453;-70
2022/01/25 09:24:33;;;;;;;31.07;19.80;;;;;;;;;;4988786;28;20812;-66
2022/01/25 09:26:59;;;;;;;37.00;21.33;;;;;;;;;;4986014;28;20532;-67
2022/01/25 09:29:25;;;;;;;43.93;23.57;;;;;;;;;;4987480;28;21000;-66
2022/01/25 09:31:51;;;;;;;30.73;19.23;;;;;;;;;;4987262;28;20591;-67
2022/01/25 09:34:19;;;;;;;24.90;16.07;;;;;;;;;;4987878;28;20465;-66
2022/01/25 09:36:45;;;;;;;25.77;14.70;;;;;;;;;;4986301;28;20449;-67
2022/01/25 09:39:11;;;;;;;26.43;16.70;;;;;;;;;;4984483;28;20483;-68
2022/01/25 09:41:37;;;;;;;24.57;14.43;;;;;;;;;;4985129;28;20945;-67
2022/01/25 09:44:03;;;;;;;24.70;16.20;;;;;;;;;;4986580;28;20429;-73
2022/01/25 09:46:29;;;;;;;24.77;15.07;;;;;;;;;;4986494;28;20440;-70
2022/01/25 09:48:55;;;;;;;27.13;17.63;;;;;;;;;;4987421;28;20444;-65
2022/01/25 09:51:22;;;;;;;26.73;16.57;;;;;;;;;;4985933;28;20485;-70
2022/01/25 09:53:48;;;;;;;27.40;15.90;;;;;;;;;;4981801;28;20444;-65
2022/01/25 09:56:14;;;;;;;26.70;17.70;;;;;;;;;;4987567;28;20448;-66
2022/01/25 09:58:42;;;;;;;27.33;18.33;;;;;;;;;;4988378;28;20433;-65
2022/01/25 10:01:08;;;;;;;35.00;19.37;;;;;;;;;;4982148;28;20457;-65
2022/01/25 10:03:38;;;;;;;42.60;23.30;;;;;;;;;;4987441;28;20437;-66
2022/01/25 10:06:05;;;;;;;32.03;19.10;;;;;;;;;;4982154;28;20441;-70
2022/01/25 10:08:32;;;;;;;29.77;17.47;;;;;;;;;;4988157;28;21029;-66
2022/01/25 10:11:19;;;;;;;33.93;19.07;;;;;;;;;;4984422;28;20495;-66
2022/01/25 10:13:48;;;;;;;32.20;17.00;;;;;;;;;;4986576;28;20464;-66
2022/01/25 10:16:15;;;;;;;33.13;19.00;;;;;;;;;;4984752;28;20987;-66
2022/01/25 10:18:41;;;;;;;41.93;24.77;;;;;;;;;;4984806;28;20444;-70
2022/01/25 10:21:16;;;;;;;37.20;20.93;;;;;;;;;;4979068;28;20452;-67
2022/01/25 10:23:59;;;;;;;43.47;22.90;;;;;;;;;;4985530;28;20455;-65
2022/01/25 10:26:24;;;;;;;29.37;19.20;;;;;;;;;;4982017;28;20448;-65
2022/01/25 10:28:51;;;;;;;38.57;21.37;;;;;;;;;;4986949;28;21137;-66
2022/01/25 10:31:17;;;;;;;33.47;18.33;;;;;;;;;;4986319;28;20499;-65
2022/01/25 10:33:52;;;;;;;32.30;18.63;;;;;;;;;;4986946;28;20793;-67
2022/01/25 10:36:20;;;;;;;33.83;18.17;;;;;;;;;;4982691;28;20445;-67
2022/01/25 10:38:47;;;;;;;29.87;17.87;;;;;;;;;;4987422;28;20436;-66
2022/01/25 10:41:20;;;;;;;32.27;17.13;;;;;;;;;;4986008;28;20433;-66
2022/01/25 10:43:47;;;;;;;31.40;17.23;;;;;;;;;;4986075;28;20993;-72
2022/01/25 10:46:18;;;;;;;29.43;17.13;;;;;;;;;;4984369;28;20425;-66
2022/01/25 10:48:49;;;;;;;28.60;16.07;;;;;;;;;;4985370;28;20449;-65
2022/01/25 10:51:19;;;;;;;27.70;16.10;;;;;;;;;;4983326;28;20476;-68
2022/01/25 10:53:45;;;;;;;28.80;16.20;;;;;;;;;;4987091;28;20876;-67
2022/01/25 10:56:12;;;;;;;26.57;16.70;;;;;;;;;;4980940;28;20868;-68
2022/01/25 10:58:43;;;;;;;32.30;19.03;;;;;;;;;;4986346;28;20925;-65
2022/01/25 11:01:10;;;;;;;26.40;16.27;;;;;;;;;;4986543;28;20429;-65
2022/01/25 11:03:38;;;;;;;25.20;15.30;;;;;;;;;;4987925;28;21015;-66
2022/01/25 11:06:10;;;;;;;28.80;16.60;;;;;;;;;;4984556;28;20433;-66
2022/01/25 11:08:37;;;;;;;27.97;16.40;;;;;;;;;;4985714;28;20504;-69
2022/01/25 11:11:06;;;;;;;21.27;14.80;;;;;;;;;;4982069;28;20517;-67
2022/01/25 11:16:00;;;;;;;26.73;16.60;;;;;;;;;;4982725;28;20444;-66
2022/01/25 11:18:26;;;;;;;27.43;16.23;;;;;;;;;;4986227;28;20445;-67
2022/01/25 11:20:53;;;;;;;30.40;19.08;;;;;;;;;;4983071;28;20848;-66
2022/01/25 11:23:19;;;;;;;24.97;17.90;;;;;;;;;;4982184;28;20648;-65
2022/01/25 11:25:46;;;;;;;22.60;15.73;;;;;;;;;;4984875;28;20440;-66
2022/01/25 11:28:12;;;;;;;23.87;15.87;;;;;;;;;;4983429;28;20444;-66
2022/01/25 11:30:40;;;;;;;22.23;14.80;;;;;;;;;;4980433;28;20531;-66
2022/01/25 11:33:07;;;;;;;33.23;15.73;;;;;;;;;;4983425;28;20444;-66
2022/01/25 11:35:33;;;;;;;28.40;17.25;;;;;;;;;;4979661;28;20925;-72
2022/01/25 11:37:59;;;;;;;35.70;19.33;;;;;;;;;;4983319;28;20194;-70
2022/01/25 11:40:30;;;;;;;26.80;17.73;;;;;;;;;;4980044;28;20434;-69
2022/01/25 11:43:01;;;;;;;23.67;17.00;;;;;;;;;;4977546;28;20273;-66
2022/01/25 11:45:29;;;;;;;32.00;20.37;;;;;;;;;;4979344;28;20513;-66
2022/01/25 11:47:55;;;;;;;23.33;15.80;;;;;;;;;;4982597;28;20448;-64
2022/01/25 11:50:32;;;;;;;27.60;15.70;;;;;;;;;;4983469;28;20432;-69
2022/01/25 11:53:05;;;;;;;28.87;16.67;;;;;;;;;;4970755;28;20499;-67
2022/01/25 11:55:48;;;;;;;25.53;15.00;;;;;;;;;;4982526;28;20531;-67
2022/01/25 11:58:15;;;;;;;23.60;15.17;;;;;;;;;;4981709;28;20495;-68
2022/01/25 12:01:02;;;;;;;26.70;15.10;;;;;;;;;;4978368;28;20445;-66
2022/01/25 12:03:28;;;;;;;28.35;18.35;;;;;;;;;;4982417;28;20462;-65
2022/01/25 12:05:59;;;;;;;25.83;15.40;;;;;;;;;;4984583;28;20543;-66
2022/01/25 12:08:38;;;;;;;23.60;15.00;;;;;;;;;;4983703;28;20466;-70
2022/01/25 12:11:24;;;;;;;22.07;13.80;;;;;;;;;;4987146;28;20819;-69
2022/01/25 12:14:09;;;;;;;25.93;16.23;;;;;;;;;;4989849;28;20841;-66
2022/01/25 12:16:43;;;;;;;23.00;14.87;;;;;;;;;;4956297;28;20650;-66
2022/01/25 12:19:10;;;;;;;22.47;12.67;;;;;;;;;;4985788;28;20965;-72
2022/01/25 12:21:53;;;;;;;33.30;13.77;;;;;;;;;;4986302;28;20861;-71
2022/01/25 12:24:22;;;;;;;20.40;12.63;;;;;;;;;;4987771;28;20440;-67
2022/01/25 12:27:02;;;;;;;25.33;14.70;;;;;;;;;;4992123;28;20459;-68
2022/01/25 12:29:29;;;;;;;20.97;12.70;;;;;;;;;;4988154;28;20951;-73
2022/01/25 12:32:15;;;;;;;23.50;14.40;;;;;;;;;;4989965;28;20488;-67
2022/01/25 12:34:56;;;;;;;23.92;15.93;;;;;;;;;;4989376;28;20427;-70
2022/01/25 12:37:41;;;;;;;16.27;12.87;;;;;;;;;;4986461;28;20628;-68
2022/01/25 12:40:25;;;;;;;16.20;12.07;;;;;;;;;;4987273;28;20456;-70
2022/01/25 12:42:55;;;;;;;21.27;12.53;;;;;;;;;;4987121;28;20801;-67
2022/01/25 12:45:21;;;;;;;15.97;11.27;;;;;;;;;;4987949;28;20516;-68
2022/01/25 12:47:55;;;;;;;19.97;13.67;;;;;;;;;;4980796;28;20499;-69
2022/01/25 12:50:21;;;;;;;28.10;16.30;;;;;;;;;;4989261;28;20949;-67
2022/01/25 12:52:48;;;;;;;23.87;13.60;;;;;;;;;;4984686;28;20502;-70
2022/01/25 12:55:15;;;;;;;22.67;14.07;;;;;;;;;;4988302;28;20938;-67
2022/01/25 12:57:48;;;;;;;19.00;12.90;;;;;;;;;;4985504;28;20499;-66
2022/01/25 13:00:15;;;;;;;18.90;12.67;;;;;;;;;;4989252;28;20425;-70
2022/01/25 13:02:41;;;;;;;16.93;11.90;;;;;;;;;;4987629;28;20461;-67
2022/01/25 13:05:14;;;;;;;19.73;13.60;;;;;;;;;;4988866;28;20847;-66
2022/01/25 13:07:40;;;;;;;14.17;10.93;;;;;;;;;;4986114;28;20432;-67
2022/01/25 13:10:09;;;;;;;19.30;12.77;;;;;;;;;;4988748;28;20847;-67
2022/01/25 13:12:37;;;;;;;18.53;12.40;;;;;;;;;;4984788;28;20531;-67
2022/01/25 13:15:26;;;;;;;19.50;12.40;;;;;;;;;;4988627;28;20433;-66
2022/01/25 13:17:50;;;;;;;19.50;13.10;;;;;;;;;;4977637;28;20465;-66
2022/01/25 13:20:21;;;;;;;19.10;13.13;;;;;;;;;;4986423;28;20480;-66
2022/01/25 13:22:47;;;;;;;17.00;11.87;;;;;;;;;;4984038;28;20433;-68
2022/01/25 13:27:52;;;;;;;17.70;12.80;;;;;;;;;;4984893;28;20471;-70
2022/01/25 13:33:04;;;;;;;22.87;14.20;;;;;;;;;;4984893;28;20447;-69
2022/01/25 13:35:34;;;;;;;26.03;13.70;;;;;;;;;;4988003;28;21016;-68
2022/01/25 13:38:08;;;;;;;24.47;13.50;;;;;;;;;;4983538;28;20429;-67
2022/01/25 13:41:03;;;;;;;17.97;13.47;;;;;;;;;;4987595;28;20515;-67
2022/01/25 13:46:04;;;;;;;25.90;14.93;;;;;;;;;;4988453;28;20815;-66
2022/01/25 13:48:30;;;;;;;18.63;13.30;;;;;;;;;;4987028;28;20432;-71
2022/01/25 13:51:00;;;;;;;22.23;16.30;;;;;;;;;;4989447;28;20822;-67
2022/01/25 13:53:27;;;;;;;26.43;15.70;;;;;;;;;;4984830;28;20429;-66
2022/01/25 13:55:55;;;;;;;21.40;14.83;;;;;;;;;;4986973;28;20441;-69
2022/01/25 13:58:21;;;;;;;28.23;14.83;;;;;;;;;;4986062;28;20425;-70
2022/01/25 14:00:48;;;;;;;20.30;13.90;;;;;;;;;;4988383;28;20867;-69
2022/01/25 14:03:17;;;;;;;24.83;14.37;;;;;;;;;;4983839;28;20487;-66
2022/01/25 14:05:43;;;;;;;19.50;13.83;;;;;;;;;;4956193;28;20549;-66
2022/01/25 14:08:10;;;;;;;24.87;15.23;;;;;;;;;;4974203;28;20448;-67
2022/01/25 14:10:36;;;;;;;26.60;14.53;;;;;;;;;;4985977;28;20504;-66
2022/01/25 14:24:12;;;;;;;18.23;11.73;;;;;;;;;;4987554;28;20425;-72
2022/01/25 14:26:40;;;;;;;18.30;12.67;;;;;;;;;;4984950;28;20437;-69
2022/01/25 14:29:19;;;;;;;25.47;15.17;;;;;;;;;;4987597;28;20425;-71
2022/01/25 14:31:46;;;;;;;22.97;12.77;;;;;;;;;;4986633;28;20838;-70
2022/01/25 14:34:13;;;;;;;23.60;15.90;;;;;;;;;;4987037;28;20428;-65
2022/01/25 14:36:42;;;;;;;26.53;14.40;;;;;;;;;;4986559;28;20428;-66
2022/01/25 14:39:08;;;;;;;25.93;15.37;;;;;;;;;;4976770;28;20437;-65
2022/01/25 14:41:36;;;;;;;22.67;14.40;;;;;;;;;;4981348;28;21607;-70
2022/01/25 14:44:07;;;;;;;24.20;13.97;;;;;;;;;;4985346;28;20425;-68
2022/01/25 14:46:35;;;;;;;21.77;14.37;;;;;;;;;;4981534;28;20516;-66
2022/01/25 14:49:05;;;;;;;31.20;13.17;;;;;;;;;;4987017;28;20985;-72
2022/01/25 14:51:58;;;;;;;22.33;15.00;;;;;;;;;;4984011;28;20496;-66
2022/01/25 14:54:25;;;;;;;27.37;15.83;;;;;;;;;;4981404;28;20472;-70
2022/01/25 14:56:57;;;;;;;24.90;15.50;;;;;;;;;;4985700;28;20520;-66
2022/01/25 14:59:26;;;;;;;26.73;15.70;;;;;;;;;;4985001;28;20448;-67
2022/01/25 15:01:53;;;;;;;36.73;17.97;;;;;;;;;;4981936;28;20452;-71
2022/01/25 15:04:19;;;;;;;23.67;15.10;;;;;;;;;;4983669;28;21548;-66
2022/01/25 15:06:45;;;;;;;26.40;15.33;;;;;;;;;;4985776;28;20433;-66
2022/01/25 15:09:13;;;;;;;22.03;14.40;;;;;;;;;;4987497;28;20487;-68
2022/01/25 15:11:39;;;;;;;24.97;15.10;;;;;;;;;;4977840;28;20488;-66
2022/01/25 15:14:17;;;;;;;23.30;13.53;;;;;;;;;;4987420;28;20806;-66
2022/01/25 15:16:43;;;;;;;26.73;15.80;;;;;;;;;;4986647;28;20540;-66
2022/01/25 15:19:09;;;;;;;26.37;16.67;;;;;;;;;;4987927;28;20441;-68
2022/01/25 15:21:35;;;;;;;23.20;15.97;;;;;;;;;;4979760;28;20454;-66
2022/01/25 15:24:01;;;;;;;33.23;15.17;;;;;;;;;;4977308;28;20511;-69
2022/01/25 15:26:30;;;;;;;31.23;17.73;;;;;;;;;;4950792;28;20592;-67
2022/01/25 15:28:58;;;;;;;29.33;16.67;;;;;;;;;;4979101;28;20993;-68
2022/01/25 15:31:25;;;;;;;27.17;17.13;;;;;;;;;;4981120;28;20547;-65
2022/01/25 15:33:51;;;;;;;24.17;16.60;;;;;;;;;;4980722;28;20472;-66
2022/01/25 15:36:18;;;;;;;22.27;15.30;;;;;;;;;;4986151;28;20429;-70
2022/01/25 15:38:45;;;;;;;26.37;17.37;;;;;;;;;;4987290;28;20437;-66
2022/01/25 15:41:12;;;;;;;21.10;14.30;;;;;;;;;;4985015;28;20437;-66
2022/01/25 15:43:48;;;;;;;16.57;12.97;;;;;;;;;;4987923;28;20441;-69
2022/01/25 15:46:20;;;;;;;24.80;15.40;;;;;;;;;;4988859;28;20857;-67
2022/01/25 15:48:46;;;;;;;27.10;16.63;;;;;;;;;;4989522;28;20521;-66
2022/01/25 15:51:12;;;;;;;27.27;16.73;;;;;;;;;;4971975;28;20895;-68
2022/01/25 15:53:38;;;;;;;25.97;16.33;;;;;;;;;;4988369;28;20499;-67
2022/01/25 15:56:04;;;;;;;24.27;15.17;;;;;;;;;;4988821;28;20438;-65
2022/01/25 15:58:30;;;;;;;28.50;19.10;;;;;;;;;;4988343;28;20444;-67
2022/01/25 16:00:56;;;;;;;29.30;18.33;;;;;;;;;;4986660;28;20432;-66
2022/01/25 16:03:22;;;;;;;32.50;18.80;;;;;;;;;;4989988;28;20524;-66
2022/01/25 16:05:50;;;;;;;27.13;17.10;;;;;;;;;;4984372;28;20441;-67
2022/01/25 16:08:16;;;;;;;29.43;18.00;;;;;;;;;;4990212;28;20468;-71
2022/01/25 16:10:44;;;;;;;30.27;16.73;;;;;;;;;;4987952;28;20445;-67
2022/01/25 16:13:10;;;;;;;25.97;16.73;;;;;;;;;;4988850;28;20460;-66
2022/01/25 16:15:36;;;;;;;23.53;16.00;;;;;;;;;;4985765;28;20991;-67